createdAt,value
2017-10-08T00:00:08.370Z,0
2017-10-08T00:00:48.863Z,0
2017-10-08T00:01:29.426Z,0
2017-10-08T00:02:09.996Z,0
2017-10-08T00:02:50.502Z,0
2017-10-08T00:03:31.011Z,0
2017-10-08T00:04:11.576Z,0
2017-10-08T00:04:52.099Z,0
2017-10-08T00:05:32.701Z,0
2017-10-08T00:06:13.193Z,0
2017-10-08T00:06:53.734Z,0
2017-10-08T00:07:34.262Z,0
2017-10-08T00:08:14.806Z,0
2017-10-08T00:08:55.373Z,0
2017-10-08T00:09:35.897Z,0
2017-10-08T00:10:16.507Z,0
2017-10-08T00:10:57.017Z,0
2017-10-08T00:11:37.560Z,0
2017-10-08T00:12:18.107Z,0
2017-10-08T00:12:58.647Z,0
2017-10-08T00:13:39.213Z,0
2017-10-08T00:14:19.769Z,0
2017-10-08T00:15:00.261Z,0
2017-10-08T00:15:40.790Z,0
2017-10-08T00:16:21.321Z,0
2017-10-08T00:17:01.872Z,0
2017-10-08T00:17:42.413Z,0
2017-10-08T00:18:22.993Z,0
2017-10-08T00:19:03.508Z,0
2017-10-08T00:19:44.017Z,0
2017-10-08T00:20:24.588Z,0
2017-10-08T00:21:05.109Z,0
2017-10-08T00:21:45.705Z,0
2017-10-08T00:22:26.186Z,0
2017-10-08T00:23:06.746Z,0
2017-10-08T00:23:47.255Z,0
2017-10-08T00:24:27.844Z,0
2017-10-08T00:25:08.347Z,0
2017-10-08T00:25:48.928Z,0
2017-10-08T00:26:29.449Z,0
2017-10-08T00:27:09.945Z,0
2017-10-08T00:27:50.482Z,0
2017-10-08T00:28:31.025Z,0
2017-10-08T00:29:11.606Z,0
2017-10-08T00:29:52.110Z,0
2017-10-08T00:30:32.658Z,0
2017-10-08T00:31:13.192Z,0
2017-10-08T00:31:53.711Z,0
2017-10-08T00:32:34.224Z,0
2017-10-08T00:33:14.756Z,0
2017-10-08T00:33:55.340Z,0
2017-10-08T00:34:35.831Z,0
2017-10-08T00:35:16.414Z,0
2017-10-08T00:35:56.966Z,0
2017-10-08T00:36:37.479Z,0
2017-10-08T00:37:18.000Z,0
2017-10-08T00:37:58.553Z,0
2017-10-08T00:38:39.117Z,0
2017-10-08T00:39:19.658Z,0
2017-10-08T00:40:00.167Z,0
2017-10-08T00:40:40.759Z,0
2017-10-08T00:41:21.277Z,0
2017-10-08T00:42:01.813Z,0
2017-10-08T00:42:42.331Z,0
2017-10-08T00:43:22.909Z,0
2017-10-08T00:44:03.385Z,0
2017-10-08T00:44:43.916Z,0
2017-10-08T00:45:24.539Z,0
2017-10-08T00:46:05.069Z,0
2017-10-08T00:46:45.643Z,0
2017-10-08T00:47:26.135Z,0
2017-10-08T00:48:06.691Z,0
2017-10-08T00:48:47.236Z,0
2017-10-08T00:49:27.736Z,0
2017-10-08T00:50:08.310Z,0
2017-10-08T00:50:48.890Z,0
2017-10-08T00:51:29.426Z,0
2017-10-08T00:52:10.000Z,0
2017-10-08T00:52:50.572Z,0
2017-10-08T00:53:31.134Z,0
2017-10-08T00:54:11.666Z,0
2017-10-08T00:54:52.200Z,0
2017-10-08T00:55:32.740Z,0
2017-10-08T00:56:13.414Z,0
2017-10-08T00:56:53.878Z,0
2017-10-08T00:57:34.385Z,0
2017-10-08T00:58:14.873Z,0
2017-10-08T00:58:55.431Z,0
2017-10-08T00:59:35.978Z,0
2017-10-08T01:00:16.549Z,0
2017-10-08T01:00:57.088Z,0
2017-10-08T01:01:37.617Z,0
2017-10-08T01:02:18.127Z,0
2017-10-08T01:02:58.645Z,0
2017-10-08T01:03:39.243Z,0
2017-10-08T01:04:19.691Z,0
2017-10-08T01:05:00.266Z,0
2017-10-08T01:05:40.824Z,0
2017-10-08T01:06:21.353Z,0
2017-10-08T01:07:01.925Z,0
2017-10-08T01:07:42.455Z,0
2017-10-08T01:08:23.029Z,0
2017-10-08T01:09:03.578Z,0
2017-10-08T01:09:44.124Z,0
2017-10-08T01:10:24.639Z,0
2017-10-08T01:11:05.168Z,0
2017-10-08T01:11:45.750Z,0
2017-10-08T01:12:26.206Z,0
2017-10-08T01:13:06.795Z,0
2017-10-08T01:13:47.309Z,0
2017-10-08T01:14:27.818Z,0
2017-10-08T01:15:08.374Z,0
2017-10-08T01:15:48.928Z,0
2017-10-08T01:16:29.448Z,0
2017-10-08T01:17:09.965Z,0
2017-10-08T01:17:50.697Z,0
2017-10-08T01:18:31.255Z,0
2017-10-08T01:19:11.787Z,0
2017-10-08T01:19:52.339Z,0
2017-10-08T01:20:32.885Z,0
2017-10-08T01:21:13.392Z,0
2017-10-08T01:21:53.943Z,0
2017-10-08T01:22:34.514Z,0
2017-10-08T01:23:15.044Z,0
2017-10-08T01:23:55.648Z,0
2017-10-08T01:24:36.199Z,0
2017-10-08T01:25:16.718Z,0
2017-10-08T01:25:57.252Z,0
2017-10-08T01:26:37.843Z,0
2017-10-08T01:27:18.325Z,0
2017-10-08T01:27:58.871Z,0
2017-10-08T01:28:39.377Z,0
2017-10-08T01:29:19.888Z,0
2017-10-08T01:30:00.456Z,0
2017-10-08T01:30:41.004Z,0
2017-10-08T01:31:21.535Z,0
2017-10-08T01:32:02.129Z,0
2017-10-08T01:32:42.626Z,0
2017-10-08T01:33:23.202Z,0
2017-10-08T01:34:03.818Z,0
2017-10-08T01:34:44.385Z,0
2017-10-08T01:35:24.852Z,0
2017-10-08T01:36:05.426Z,0
2017-10-08T01:36:45.967Z,0
2017-10-08T01:37:26.588Z,0
2017-10-08T01:38:07.095Z,0
2017-10-08T01:38:47.729Z,0
2017-10-08T01:39:28.347Z,0
2017-10-08T01:40:08.838Z,0
2017-10-08T01:40:49.412Z,0
2017-10-08T01:41:29.965Z,0
2017-10-08T01:42:10.529Z,0
2017-10-08T01:42:51.106Z,0
2017-10-08T01:43:31.646Z,0
2017-10-08T01:44:12.138Z,0
2017-10-08T01:44:52.772Z,0
2017-10-08T01:45:33.314Z,0
2017-10-08T01:46:13.833Z,0
2017-10-08T01:46:54.415Z,0
2017-10-08T01:47:34.924Z,0
2017-10-08T01:48:15.543Z,0
2017-10-08T01:48:56.087Z,0
2017-10-08T01:49:36.624Z,0
2017-10-08T01:50:17.191Z,0
2017-10-08T01:50:57.820Z,0
2017-10-08T01:51:38.414Z,0
2017-10-08T01:52:18.917Z,0
2017-10-08T01:52:59.575Z,0
2017-10-08T01:53:39.957Z,0
2017-10-08T01:54:20.580Z,0
2017-10-08T01:55:01.067Z,0
2017-10-08T01:55:41.611Z,0
2017-10-08T01:56:22.391Z,0
2017-10-08T01:57:02.940Z,0
2017-10-08T01:57:43.450Z,0
2017-10-08T01:58:24.011Z,0
2017-10-08T01:59:04.523Z,0
2017-10-08T01:59:45.083Z,0
2017-10-08T02:00:25.699Z,0
2017-10-08T02:01:06.196Z,0
2017-10-08T02:01:46.755Z,0
2017-10-08T02:02:27.411Z,0
2017-10-08T02:03:07.900Z,0
2017-10-08T02:03:48.427Z,0
2017-10-08T02:04:28.965Z,0
2017-10-08T02:05:09.526Z,0
2017-10-08T02:05:50.052Z,0
2017-10-08T02:06:30.584Z,0
2017-10-08T02:07:11.119Z,0
2017-10-08T02:07:51.668Z,0
2017-10-08T02:08:32.253Z,0
2017-10-08T02:09:12.822Z,0
2017-10-08T02:09:53.364Z,0
2017-10-08T02:10:33.897Z,0
2017-10-08T02:11:14.427Z,0
2017-10-08T02:11:55.017Z,0
2017-10-08T02:12:35.553Z,0
2017-10-08T02:13:16.101Z,0
2017-10-08T02:13:56.633Z,0
2017-10-08T02:14:37.129Z,0
2017-10-08T02:15:17.703Z,0
2017-10-08T02:15:58.287Z,0
2017-10-08T02:16:38.860Z,0
2017-10-08T02:17:19.464Z,0
2017-10-08T02:17:59.991Z,0
2017-10-08T02:18:40.526Z,0
2017-10-08T02:19:21.083Z,0
2017-10-08T02:20:01.631Z,0
2017-10-08T02:20:42.203Z,0
2017-10-08T02:21:22.705Z,0
2017-10-08T02:22:03.244Z,0
2017-10-08T02:22:43.874Z,0
2017-10-08T02:23:24.367Z,0
2017-10-08T02:24:04.973Z,0
2017-10-08T02:24:45.476Z,0
2017-10-08T02:25:26.008Z,0
2017-10-08T02:26:06.586Z,0
2017-10-08T02:26:47.083Z,0
2017-10-08T02:27:27.665Z,0
2017-10-08T02:28:08.221Z,0
2017-10-08T02:28:48.743Z,0
2017-10-08T02:29:29.262Z,0
2017-10-08T02:30:09.881Z,0
2017-10-08T02:30:50.412Z,0
2017-10-08T02:31:30.934Z,0
2017-10-08T02:32:11.452Z,0
2017-10-08T02:32:52.049Z,0
2017-10-08T02:33:32.559Z,0
2017-10-08T02:34:13.110Z,0
2017-10-08T02:34:53.710Z,0
2017-10-08T02:35:34.250Z,0
2017-10-08T02:36:14.781Z,0
2017-10-08T02:36:55.331Z,0
2017-10-08T02:37:35.885Z,0
2017-10-08T02:38:16.389Z,0
2017-10-08T02:38:56.894Z,0
2017-10-08T02:39:37.568Z,0
2017-10-08T02:40:18.022Z,0
2017-10-08T02:40:58.577Z,0
2017-10-08T02:41:39.091Z,0
2017-10-08T02:42:19.620Z,0
2017-10-08T02:43:00.130Z,0
2017-10-08T02:43:40.677Z,0
2017-10-08T02:44:21.249Z,0
2017-10-08T02:45:01.734Z,0
2017-10-08T02:45:42.341Z,0
2017-10-08T02:46:22.900Z,0
2017-10-08T02:47:03.424Z,0
2017-10-08T02:47:43.934Z,0
2017-10-08T02:48:24.512Z,0
2017-10-08T02:49:05.047Z,0
2017-10-08T02:49:45.616Z,0
2017-10-08T02:50:26.088Z,0
2017-10-08T02:51:06.632Z,0
2017-10-08T02:51:47.184Z,0
2017-10-08T02:52:27.709Z,0
2017-10-08T02:53:08.189Z,0
2017-10-08T02:53:48.782Z,0
2017-10-08T02:54:29.276Z,0
2017-10-08T02:55:09.778Z,0
2017-10-08T02:55:50.293Z,0
2017-10-08T02:56:30.866Z,0
2017-10-08T02:57:11.433Z,0
2017-10-08T02:57:51.894Z,0
2017-10-08T02:58:32.446Z,0
2017-10-08T02:59:12.984Z,0
2017-10-08T02:59:53.535Z,0
2017-10-08T03:00:34.221Z,0
2017-10-08T03:01:14.782Z,0
2017-10-08T03:01:55.329Z,0
2017-10-08T03:02:35.875Z,0
2017-10-08T03:03:16.443Z,0
2017-10-08T03:03:56.961Z,0
2017-10-08T03:04:37.505Z,0
2017-10-08T03:05:18.020Z,0
2017-10-08T03:05:58.591Z,0
2017-10-08T03:06:39.095Z,0
2017-10-08T03:07:19.679Z,0
2017-10-08T03:08:00.169Z,0
2017-10-08T03:08:40.732Z,0
2017-10-08T03:09:21.244Z,0
2017-10-08T03:10:01.815Z,0
2017-10-08T03:10:42.318Z,0
2017-10-08T03:11:22.914Z,0
2017-10-08T03:12:03.538Z,0
2017-10-08T03:12:44.137Z,0
2017-10-08T03:13:24.611Z,0
2017-10-08T03:14:05.195Z,0
2017-10-08T03:14:45.698Z,0
2017-10-08T03:15:26.251Z,0
2017-10-08T03:16:06.829Z,0
2017-10-08T03:16:47.345Z,0
2017-10-08T03:17:27.828Z,0
2017-10-08T03:18:08.363Z,0
2017-10-08T03:18:48.872Z,0
2017-10-08T03:19:29.406Z,0
2017-10-08T03:20:09.984Z,0
2017-10-08T03:20:50.495Z,0
2017-10-08T03:21:31.057Z,0
2017-10-08T03:22:11.558Z,0
2017-10-08T03:22:52.188Z,0
2017-10-08T03:23:32.675Z,0
2017-10-08T03:24:13.280Z,0
2017-10-08T03:24:53.790Z,0
2017-10-08T03:25:34.330Z,0
2017-10-08T03:26:15.645Z,0
2017-10-08T03:26:55.344Z,0
2017-10-08T03:27:35.932Z,0
2017-10-08T03:28:16.448Z,0
2017-10-08T03:28:56.995Z,0
2017-10-08T03:29:37.521Z,0
2017-10-08T03:30:18.108Z,0
2017-10-08T03:30:58.703Z,0
2017-10-08T03:31:39.215Z,0
2017-10-08T03:32:19.780Z,0
2017-10-08T03:33:00.307Z,0
2017-10-08T03:33:40.871Z,0
2017-10-08T03:34:21.470Z,0
2017-10-08T03:35:01.938Z,0
2017-10-08T03:35:42.485Z,0
2017-10-08T03:36:23.070Z,0
2017-10-08T03:37:03.594Z,0
2017-10-08T03:37:44.136Z,0
2017-10-08T03:38:26.740Z,0
2017-10-08T03:39:07.283Z,0
2017-10-08T03:39:47.769Z,0
2017-10-08T03:40:28.267Z,0
2017-10-08T03:41:08.873Z,0
2017-10-08T03:41:49.382Z,0
2017-10-08T03:42:29.927Z,0
2017-10-08T03:43:10.420Z,0
2017-10-08T03:43:50.955Z,0
2017-10-08T03:44:31.518Z,0
2017-10-08T03:45:12.082Z,0
2017-10-08T03:45:52.600Z,0
2017-10-08T03:46:33.186Z,0
2017-10-08T03:47:13.781Z,0
2017-10-08T03:47:54.322Z,0
2017-10-08T03:48:34.840Z,0
2017-10-08T03:49:15.377Z,0
2017-10-08T03:49:55.921Z,0
2017-10-08T03:50:36.499Z,0
2017-10-08T03:51:17.044Z,0
2017-10-08T03:51:57.564Z,0
2017-10-08T03:52:38.144Z,0
2017-10-08T03:53:18.694Z,0
2017-10-08T03:53:59.246Z,0
2017-10-08T03:54:39.726Z,0
2017-10-08T03:55:20.312Z,0
2017-10-08T03:56:00.850Z,0
2017-10-08T03:56:41.372Z,0
2017-10-08T03:57:21.912Z,0
2017-10-08T03:58:02.465Z,0
2017-10-08T03:58:42.982Z,0
2017-10-08T03:59:23.580Z,0
2017-10-08T04:00:04.108Z,0
2017-10-08T04:00:44.646Z,0
2017-10-08T04:01:25.222Z,0
2017-10-08T04:02:05.759Z,0
2017-10-08T04:02:46.341Z,0
2017-10-08T04:03:26.855Z,0
2017-10-08T04:04:07.399Z,0
2017-10-08T04:04:47.912Z,0
2017-10-08T04:05:28.465Z,0
2017-10-08T04:06:08.980Z,0
2017-10-08T04:06:49.565Z,0
2017-10-08T04:07:30.095Z,0
2017-10-08T04:08:10.642Z,0
2017-10-08T04:08:51.170Z,0
2017-10-08T04:09:31.736Z,0
2017-10-08T04:10:12.256Z,0
2017-10-08T04:10:52.791Z,0
2017-10-08T04:11:33.300Z,0
2017-10-08T04:12:13.894Z,0
2017-10-08T04:12:55.178Z,0
2017-10-08T04:13:34.977Z,0
2017-10-08T04:14:15.566Z,0
2017-10-08T04:14:56.048Z,0
2017-10-08T04:15:36.568Z,0
2017-10-08T04:16:17.082Z,0
2017-10-08T04:16:57.633Z,0
2017-10-08T04:17:38.167Z,0
2017-10-08T04:18:18.679Z,0
2017-10-08T04:18:59.226Z,0
2017-10-08T04:19:39.775Z,0
2017-10-08T04:20:20.242Z,0
2017-10-08T04:21:00.786Z,0
2017-10-08T04:21:41.342Z,0
2017-10-08T04:22:21.870Z,0
2017-10-08T04:23:02.460Z,0
2017-10-08T04:23:42.946Z,0
2017-10-08T04:24:23.509Z,0
2017-10-08T04:25:04.014Z,0
2017-10-08T04:25:44.589Z,0
2017-10-08T04:26:25.129Z,0
2017-10-08T04:27:05.656Z,0
2017-10-08T04:27:46.176Z,0
2017-10-08T04:28:26.772Z,0
2017-10-08T04:29:07.307Z,0
2017-10-08T04:29:47.863Z,0
2017-10-08T04:30:28.394Z,0
2017-10-08T04:31:08.902Z,0
2017-10-08T04:31:49.466Z,0
2017-10-08T04:32:29.954Z,0
2017-10-08T04:33:10.577Z,0
2017-10-08T04:33:51.055Z,0
2017-10-08T04:34:31.575Z,0
2017-10-08T04:35:12.086Z,0
2017-10-08T04:35:52.626Z,0
2017-10-08T04:36:33.164Z,0
2017-10-08T04:37:13.717Z,0
2017-10-08T04:37:54.293Z,0
2017-10-08T04:38:34.824Z,0
2017-10-08T04:39:15.355Z,0
2017-10-08T04:39:55.960Z,0
2017-10-08T04:40:36.442Z,0
2017-10-08T04:41:17.025Z,0
2017-10-08T04:41:57.509Z,0
2017-10-08T04:42:38.042Z,0
2017-10-08T04:43:18.568Z,0
2017-10-08T04:43:59.140Z,0
2017-10-08T04:44:39.695Z,0
2017-10-08T04:45:20.283Z,0
2017-10-08T04:46:00.762Z,0
2017-10-08T04:46:41.327Z,0
2017-10-08T04:47:21.857Z,0
2017-10-08T04:48:02.357Z,0
2017-10-08T04:48:42.931Z,0
2017-10-08T04:49:23.488Z,0
2017-10-08T04:50:03.983Z,0
2017-10-08T04:50:44.542Z,0
2017-10-08T04:51:25.136Z,0
2017-10-08T04:52:05.633Z,0
2017-10-08T04:52:46.164Z,0
2017-10-08T04:53:26.710Z,0
2017-10-08T04:54:07.277Z,0
2017-10-08T04:54:47.864Z,0
2017-10-08T04:55:28.380Z,0
2017-10-08T04:56:08.907Z,0
2017-10-08T04:56:49.445Z,0
2017-10-08T04:57:29.976Z,0
2017-10-08T04:58:10.476Z,0
2017-10-08T04:58:51.017Z,0
2017-10-08T04:59:31.603Z,0
2017-10-08T05:00:12.116Z,0
2017-10-08T05:00:52.652Z,0
2017-10-08T05:01:33.197Z,0
2017-10-08T05:02:13.728Z,0
2017-10-08T05:02:54.340Z,0
2017-10-08T05:03:34.894Z,0
2017-10-08T05:04:15.394Z,0
2017-10-08T05:04:55.938Z,0
2017-10-08T05:05:36.478Z,0
2017-10-08T05:06:16.990Z,0
2017-10-08T05:06:57.528Z,0
2017-10-08T05:07:38.040Z,0
2017-10-08T05:08:18.611Z,0
2017-10-08T05:08:59.190Z,0
2017-10-08T05:09:39.784Z,0
2017-10-08T05:10:20.329Z,0
2017-10-08T05:11:00.877Z,0
2017-10-08T05:11:41.428Z,0
2017-10-08T05:12:21.913Z,0
2017-10-08T05:13:02.491Z,0
2017-10-08T05:13:42.975Z,0
2017-10-08T05:14:23.495Z,0
2017-10-08T05:15:04.008Z,0
2017-10-08T05:15:44.596Z,0
2017-10-08T05:16:25.149Z,0
2017-10-08T05:17:05.645Z,0
2017-10-08T05:17:46.169Z,0
2017-10-08T05:18:26.718Z,0
2017-10-08T05:19:07.273Z,0
2017-10-08T05:19:47.882Z,0
2017-10-08T05:20:28.374Z,0
2017-10-08T05:21:08.948Z,0
2017-10-08T05:21:49.543Z,0
2017-10-08T05:22:29.996Z,0
2017-10-08T05:23:10.537Z,0
2017-10-08T05:23:51.091Z,0
2017-10-08T05:24:31.606Z,0
2017-10-08T05:25:12.183Z,0
2017-10-08T05:25:52.698Z,0
2017-10-08T05:26:33.245Z,0
2017-10-08T05:27:13.744Z,0
2017-10-08T05:27:54.290Z,0
2017-10-08T05:28:34.858Z,0
2017-10-08T05:29:15.412Z,0
2017-10-08T05:29:55.980Z,0
2017-10-08T05:30:36.496Z,0
2017-10-08T05:31:17.075Z,0
2017-10-08T05:31:57.581Z,0
2017-10-08T05:32:38.112Z,0
2017-10-08T05:33:18.689Z,0
2017-10-08T05:33:59.266Z,0
2017-10-08T05:34:39.809Z,0
2017-10-08T05:35:20.356Z,0
2017-10-08T05:36:00.876Z,0
2017-10-08T05:36:41.405Z,0
2017-10-08T05:37:21.964Z,0
2017-10-08T05:38:02.467Z,0
2017-10-08T05:38:43.038Z,0
2017-10-08T05:39:23.533Z,0
2017-10-08T05:40:04.131Z,0
2017-10-08T05:40:44.673Z,0
2017-10-08T05:41:25.184Z,0
2017-10-08T05:42:05.751Z,0
2017-10-08T05:42:46.289Z,0
2017-10-08T05:43:26.819Z,0
2017-10-08T05:44:07.357Z,0
2017-10-08T05:44:47.850Z,0
2017-10-08T05:45:28.397Z,0
2017-10-08T05:46:08.947Z,0
2017-10-08T05:46:49.493Z,0
2017-10-08T05:47:30.097Z,0
2017-10-08T05:48:10.607Z,0
2017-10-08T05:48:51.167Z,0
2017-10-08T05:49:31.705Z,0
2017-10-08T05:50:12.187Z,0
2017-10-08T05:50:52.777Z,0
2017-10-08T05:51:33.350Z,0
2017-10-08T05:52:13.923Z,0
2017-10-08T05:52:54.434Z,0
2017-10-08T05:53:34.970Z,0
2017-10-08T05:54:15.538Z,0
2017-10-08T05:54:56.022Z,0
2017-10-08T05:55:36.549Z,0
2017-10-08T05:56:17.104Z,0
2017-10-08T05:56:57.661Z,0
2017-10-08T05:57:38.209Z,0
2017-10-08T05:58:18.736Z,0
2017-10-08T05:58:59.269Z,0
2017-10-08T05:59:39.780Z,0
2017-10-08T06:00:20.303Z,0
2017-10-08T06:01:00.870Z,0
2017-10-08T06:01:41.430Z,0
2017-10-08T06:02:21.930Z,0
2017-10-08T06:03:02.541Z,0
2017-10-08T06:03:43.236Z,0
2017-10-08T06:04:23.805Z,0
2017-10-08T06:05:04.319Z,0
2017-10-08T06:05:44.895Z,0
2017-10-08T06:06:25.456Z,0
2017-10-08T06:07:05.996Z,0
2017-10-08T06:07:46.531Z,0
2017-10-08T06:08:27.042Z,0
2017-10-08T06:09:07.561Z,0
2017-10-08T06:09:48.104Z,0
2017-10-08T06:10:28.651Z,0
2017-10-08T06:11:09.203Z,0
2017-10-08T06:11:49.685Z,0
2017-10-08T06:12:30.288Z,0
2017-10-08T06:13:10.884Z,0
2017-10-08T06:13:51.389Z,0
2017-10-08T06:14:31.866Z,0
2017-10-08T06:15:12.406Z,0
2017-10-08T06:15:52.961Z,0
2017-10-08T06:16:33.428Z,0
2017-10-08T06:17:13.993Z,0
2017-10-08T06:17:54.496Z,0
2017-10-08T06:18:35.060Z,5
2017-10-08T06:19:15.597Z,5
2017-10-08T06:19:56.122Z,5
2017-10-08T06:20:36.652Z,5
2017-10-08T06:21:17.234Z,5
2017-10-08T06:21:57.749Z,10
2017-10-08T06:22:38.319Z,10
2017-10-08T06:23:18.825Z,10
2017-10-08T06:23:59.362Z,10
2017-10-08T06:24:39.891Z,10
2017-10-08T06:25:20.463Z,10
2017-10-08T06:26:00.986Z,10
2017-10-08T06:26:41.544Z,10
2017-10-08T06:27:22.112Z,10
2017-10-08T06:28:02.597Z,10
2017-10-08T06:28:43.212Z,10
2017-10-08T06:29:23.828Z,10
2017-10-08T06:30:04.394Z,10
2017-10-08T06:30:44.964Z,10
2017-10-08T06:31:25.493Z,10
2017-10-08T06:32:06.047Z,10
2017-10-08T06:32:46.608Z,10
2017-10-08T06:33:27.164Z,10
2017-10-08T06:34:07.761Z,10
2017-10-08T06:34:48.384Z,10
2017-10-08T06:35:29.103Z,10
2017-10-08T06:36:09.678Z,10
2017-10-08T06:36:50.360Z,10
2017-10-08T06:37:30.824Z,10
2017-10-08T06:38:11.395Z,10
2017-10-08T06:38:51.924Z,10
2017-10-08T06:39:32.472Z,10
2017-10-08T06:40:13.040Z,15
2017-10-08T06:40:53.546Z,15
2017-10-08T06:41:34.104Z,15
2017-10-08T06:42:14.692Z,15
2017-10-08T06:42:55.270Z,15
2017-10-08T06:43:35.799Z,15
2017-10-08T06:44:16.373Z,15
2017-10-08T06:44:56.935Z,15
2017-10-08T06:45:37.402Z,15
2017-10-08T06:46:18.052Z,15
2017-10-08T06:46:58.610Z,15
2017-10-08T06:47:39.126Z,15
2017-10-08T06:48:19.677Z,15
2017-10-08T06:49:00.161Z,15
2017-10-08T06:49:40.749Z,15
2017-10-08T06:50:21.299Z,15
2017-10-08T06:51:01.924Z,20
2017-10-08T06:51:42.427Z,15
2017-10-08T06:52:22.927Z,15
2017-10-08T06:53:03.461Z,15
2017-10-08T06:53:44.026Z,15
2017-10-08T06:54:24.535Z,15
2017-10-08T06:55:05.078Z,15
2017-10-08T06:55:45.661Z,15
2017-10-08T06:56:26.189Z,15
2017-10-08T06:57:06.753Z,15
2017-10-08T06:57:47.260Z,15
2017-10-08T06:58:27.868Z,15
2017-10-08T06:59:08.516Z,15
2017-10-08T06:59:49.164Z,15
2017-10-08T07:00:29.844Z,15
2017-10-08T07:01:10.314Z,15
2017-10-08T07:01:50.901Z,15
2017-10-08T07:02:31.381Z,15
2017-10-08T07:03:12.009Z,15
2017-10-08T07:03:52.536Z,15
2017-10-08T07:04:33.189Z,15
2017-10-08T07:05:13.805Z,15
2017-10-08T07:05:54.367Z,15
2017-10-08T07:06:34.910Z,15
2017-10-08T07:07:15.501Z,15
2017-10-08T07:07:56.089Z,15
2017-10-08T07:08:36.674Z,10
2017-10-08T07:09:17.168Z,10
2017-10-08T07:09:57.729Z,10
2017-10-08T07:10:38.606Z,15
2017-10-08T07:11:19.148Z,15
2017-10-08T07:11:59.669Z,15
2017-10-08T07:12:40.269Z,10
2017-10-08T07:13:20.998Z,15
2017-10-08T07:14:01.541Z,15
2017-10-08T07:14:42.089Z,15
2017-10-08T07:15:22.599Z,15
2017-10-08T07:16:03.193Z,15
2017-10-08T07:16:43.738Z,15
2017-10-08T07:17:24.267Z,15
2017-10-08T07:18:04.799Z,15
2017-10-08T07:18:45.303Z,15
2017-10-08T07:19:25.911Z,20
2017-10-08T07:20:06.457Z,20
2017-10-08T07:20:46.992Z,20
2017-10-08T07:21:27.545Z,20
2017-10-08T07:22:08.081Z,20
2017-10-08T07:22:48.683Z,20
2017-10-08T07:23:29.239Z,25
2017-10-08T07:24:09.861Z,20
2017-10-08T07:24:50.360Z,20
2017-10-08T07:25:30.964Z,20
2017-10-08T07:26:11.537Z,20
2017-10-08T07:26:52.044Z,20
2017-10-08T07:27:32.555Z,20
2017-10-08T07:28:13.175Z,20
2017-10-08T07:28:53.754Z,20
2017-10-08T07:29:34.303Z,25
2017-10-08T07:30:14.864Z,25
2017-10-08T07:30:55.450Z,20
2017-10-08T07:31:36.477Z,20
2017-10-08T07:32:16.638Z,20
2017-10-08T07:32:57.176Z,20
2017-10-08T07:33:37.696Z,20
2017-10-08T07:34:18.283Z,20
2017-10-08T07:34:58.907Z,20
2017-10-08T07:35:39.456Z,20
2017-10-08T07:36:19.976Z,15
2017-10-08T07:37:00.620Z,20
2017-10-08T07:37:41.186Z,20
2017-10-08T07:38:21.819Z,20
2017-10-08T07:39:02.577Z,20
2017-10-08T07:39:44.277Z,20
2017-10-08T07:40:26.175Z,20
2017-10-08T07:41:07.671Z,20
2017-10-08T07:41:48.647Z,20
2017-10-08T07:42:29.325Z,15
2017-10-08T07:43:10.432Z,15
2017-10-08T07:43:50.936Z,20
2017-10-08T07:44:31.566Z,15
2017-10-08T07:45:12.175Z,15
2017-10-08T07:45:52.730Z,15
2017-10-08T07:48:13.363Z,15
2017-10-08T07:48:54.125Z,20
2017-10-08T07:49:37.389Z,15
2017-10-08T07:50:18.107Z,15
2017-10-08T07:50:58.695Z,15
2017-10-08T07:51:39.229Z,20
2017-10-08T07:54:14.248Z,15
2017-10-08T07:54:56.030Z,15
2017-10-08T07:55:36.964Z,20
2017-10-08T07:56:20.900Z,15
2017-10-08T07:57:01.393Z,20
2017-10-08T07:57:41.924Z,20
2017-10-08T07:58:22.521Z,20
2017-10-08T07:59:03.122Z,20
2017-10-08T07:59:43.706Z,25
2017-10-08T08:00:24.842Z,20
2017-10-08T08:01:05.359Z,20
2017-10-08T08:01:45.880Z,25
2017-10-08T08:02:26.493Z,25
2017-10-08T08:03:07.020Z,25
2017-10-08T08:03:47.651Z,30
2017-10-08T08:04:28.142Z,30
2017-10-08T08:05:08.703Z,30
2017-10-08T08:05:49.408Z,30
2017-10-08T08:06:29.932Z,30
2017-10-08T08:07:10.607Z,35
2017-10-08T08:07:51.129Z,35
2017-10-08T08:08:31.646Z,35
2017-10-08T08:09:12.252Z,35
2017-10-08T08:09:52.764Z,35
2017-10-08T08:10:33.442Z,30
2017-10-08T08:11:14.036Z,35
2017-10-08T08:11:54.680Z,35
2017-10-08T08:12:35.208Z,40
2017-10-08T08:13:15.734Z,50
2017-10-08T08:13:56.523Z,60
2017-10-08T08:14:37.820Z,60
2017-10-08T08:15:18.533Z,65
2017-10-08T08:15:59.044Z,75
2017-10-08T08:16:39.591Z,80
2017-10-08T08:17:20.115Z,85
2017-10-08T08:18:00.730Z,90
2017-10-08T08:18:41.218Z,105
2017-10-08T08:19:21.718Z,100
2017-10-08T08:20:02.283Z,105
2017-10-08T08:20:42.874Z,110
2017-10-08T08:21:23.438Z,105
2017-10-08T08:22:03.958Z,110
2017-10-08T08:22:44.545Z,100
2017-10-08T08:23:25.024Z,100
2017-10-08T08:24:05.568Z,90
2017-10-08T08:24:46.110Z,75
2017-10-08T08:25:26.642Z,70
2017-10-08T08:26:07.152Z,65
2017-10-08T08:26:47.676Z,60
2017-10-08T08:27:28.293Z,60
2017-10-08T08:28:08.903Z,55
2017-10-08T08:28:49.513Z,55
2017-10-08T08:29:29.985Z,60
2017-10-08T08:30:10.516Z,60
2017-10-08T08:30:51.096Z,60
2017-10-08T08:31:31.649Z,65
2017-10-08T08:32:12.139Z,65
2017-10-08T08:32:52.629Z,70
2017-10-08T08:33:33.243Z,75
2017-10-08T08:34:13.777Z,70
2017-10-08T08:34:54.341Z,75
2017-10-08T08:35:34.883Z,70
2017-10-08T08:36:15.418Z,75
2017-10-08T08:36:55.947Z,80
2017-10-08T08:37:36.516Z,70
2017-10-08T08:38:17.055Z,75
2017-10-08T08:38:57.613Z,80
2017-10-08T08:39:38.214Z,80
2017-10-08T08:40:18.728Z,75
2017-10-08T08:40:59.279Z,85
2017-10-08T08:41:39.779Z,85
2017-10-08T08:42:20.315Z,95
2017-10-08T08:43:00.853Z,95
2017-10-08T08:43:41.397Z,100
2017-10-08T08:44:21.867Z,105
2017-10-08T08:45:02.417Z,110
2017-10-08T08:45:42.978Z,110
2017-10-08T08:46:23.530Z,110
2017-10-08T08:47:04.062Z,115
2017-10-08T08:47:44.606Z,115
2017-10-08T08:48:25.108Z,105
2017-10-08T08:49:05.665Z,110
2017-10-08T08:49:46.224Z,120
2017-10-08T08:50:26.723Z,115
2017-10-08T08:51:07.273Z,110
2017-10-08T08:51:47.845Z,115
2017-10-08T08:52:28.376Z,115
2017-10-08T08:53:08.992Z,115
2017-10-08T08:53:49.475Z,110
2017-10-08T08:54:30.023Z,110
2017-10-08T08:55:10.536Z,100
2017-10-08T08:55:51.068Z,90
2017-10-08T08:56:31.652Z,95
2017-10-08T08:57:12.326Z,90
2017-10-08T08:57:52.892Z,95
2017-10-08T08:58:33.401Z,85
2017-10-08T08:59:13.899Z,85
2017-10-08T08:59:54.548Z,90
2017-10-08T09:00:35.046Z,95
2017-10-08T09:01:15.558Z,90
2017-10-08T09:01:56.155Z,90
2017-10-08T09:02:36.699Z,85
2017-10-08T09:03:17.263Z,80
2017-10-08T09:03:57.738Z,75
2017-10-08T09:04:38.287Z,75
2017-10-08T09:05:18.904Z,75
2017-10-08T09:05:59.403Z,75
2017-10-08T09:06:40.003Z,80
2017-10-08T09:07:20.479Z,75
2017-10-08T09:08:01.009Z,70
2017-10-08T09:08:41.576Z,70
2017-10-08T09:09:22.118Z,65
2017-10-08T09:10:02.649Z,65
2017-10-08T09:10:43.194Z,65
2017-10-08T09:11:23.760Z,65
2017-10-08T09:12:04.290Z,60
2017-10-08T09:12:44.785Z,60
2017-10-08T09:13:25.367Z,60
2017-10-08T09:14:05.985Z,65
2017-10-08T09:14:46.548Z,60
2017-10-08T09:15:27.014Z,60
2017-10-08T09:16:07.539Z,70
2017-10-08T09:16:48.081Z,70
2017-10-08T09:17:28.609Z,80
2017-10-08T09:18:09.169Z,75
2017-10-08T09:18:49.704Z,75
2017-10-08T09:19:30.297Z,75
2017-10-08T09:20:10.806Z,80
2017-10-08T09:20:51.359Z,75
2017-10-08T09:21:31.902Z,75
2017-10-08T09:22:12.462Z,90
2017-10-08T09:22:53.040Z,90
2017-10-08T09:23:33.789Z,105
2017-10-08T09:24:14.362Z,100
2017-10-08T09:24:54.958Z,100
2017-10-08T09:25:35.509Z,95
2017-10-08T09:26:16.117Z,95
2017-10-08T09:26:56.635Z,100
2017-10-08T09:27:37.230Z,110
2017-10-08T09:28:17.789Z,110
2017-10-08T09:28:58.334Z,110
2017-10-08T09:29:38.885Z,110
2017-10-08T09:30:19.396Z,115
2017-10-08T09:30:59.978Z,115
2017-10-08T09:31:40.521Z,120
2017-10-08T09:32:21.059Z,115
2017-10-08T09:33:01.587Z,110
2017-10-08T09:33:42.111Z,105
2017-10-08T09:34:22.670Z,95
2017-10-08T09:35:03.275Z,95
2017-10-08T09:35:43.837Z,95
2017-10-08T09:36:24.326Z,100
2017-10-08T09:37:04.932Z,105
2017-10-08T09:37:45.432Z,100
2017-10-08T09:38:25.976Z,90
2017-10-08T09:39:06.560Z,95
2017-10-08T09:39:47.087Z,100
2017-10-08T09:40:27.704Z,95
2017-10-08T09:41:08.270Z,95
2017-10-08T09:41:48.801Z,90
2017-10-08T09:42:29.339Z,85
2017-10-08T09:43:09.911Z,85
2017-10-08T09:43:50.496Z,85
2017-10-08T09:44:31.052Z,80
2017-10-08T09:45:11.615Z,85
2017-10-08T09:45:52.360Z,80
2017-10-08T09:46:32.829Z,90
2017-10-08T09:47:13.459Z,105
2017-10-08T09:47:54.023Z,120
2017-10-08T09:48:34.665Z,140
2017-10-08T09:49:16.067Z,135
2017-10-08T09:49:56.875Z,135
2017-10-08T09:50:37.466Z,135
2017-10-08T09:51:18.140Z,140
2017-10-08T09:51:58.588Z,150
2017-10-08T09:52:39.371Z,150
2017-10-08T09:53:19.925Z,145
2017-10-08T09:54:00.502Z,140